Time;durP1;ratioP1;P1;durP2;ratioP2;P2;SDS_P1;SDS_P2;PMS_P1;PMS_P2;Temp;Humidity;BMP_temperature;BMP_pressure;BME280_temperature;BME280_humidity;BME280_pressure;Samples;Min_cycle;Max_cycle;Signal;HPM_P1;HPM_P2
2023/11/18 00:01:46;;;;;;;9.77;5.43;;;5.80;99.90;;;;;;6195141;23;20016;-84
2023/11/18 00:04:17;;;;;;;11.45;5.07;;;5.80;99.90;;;;;;6195362;23;20102;-84
2023/11/18 00:06:47;;;;;;;7.50;4.15;;;5.90;99.90;;;;;;6220168;23;20030;-84
2023/11/18 00:09:14;;;;;;;7.95;4.60;;;5.90;99.90;;;;;;6220112;23;20028;-84
2023/11/18 00:11:44;;;;;;;10.32;5.25;;;5.90;99.90;;;;;;6169855;23;20102;-82
2023/11/18 00:14:13;;;;;;;9.32;4.78;;;5.90;99.90;;;;;;6194259;23;20020;-84
2023/11/18 00:16:40;;;;;;;8.35;4.18;;;5.80;99.90;;;;;;6170819;23;20020;-84
2023/11/18 00:19:09;;;;;;;8.65;4.78;;;5.80;99.90;;;;;;6195270;23;20043;-85
2023/11/18 00:21:36;;;;;;;8.43;4.90;;;5.80;99.90;;;;;;6220116;23;20040;-85
2023/11/18 00:24:07;;;;;;;8.88;5.03;;;5.80;99.90;;;;;;6180711;23;20016;-84
2023/11/18 00:26:36;;;;;;;10.18;4.80;;;5.70;99.90;;;;;;6245597;23;20000;-84
2023/11/18 00:29:04;;;;;;;9.88;4.45;;;5.70;99.90;;;;;;6191737;23;20024;-83
2023/11/18 00:31:31;;;;;;;8.23;4.15;;;5.70;99.90;;;;;;6199655;23;20035;-84
2023/11/18 00:33:59;;;;;;;10.32;3.97;;;5.70;99.90;;;;;;6223722;23;20046;-85
2023/11/18 00:36:29;;;;;;;10.15;5.20;;;5.70;99.90;;;;;;6205337;23;20020;-84
2023/11/18 00:38:56;;;;;;;7.85;3.78;;;5.80;99.90;;;;;;6196402;23;20043;-84
2023/11/18 00:41:24;;;;;;;8.20;3.55;;;5.70;99.90;;;;;;6171772;23;20019;-84
2023/11/18 00:43:53;;;;;;;9.23;4.05;;;5.70;99.90;;;;;;6195309;23;20330;-84
2023/11/18 00:46:23;;;;;;;6.70;3.38;;;5.70;99.90;;;;;;6195416;23;20023;-84
2023/11/18 00:48:50;;;;;;;8.18;3.45;;;5.70;99.90;;;;;;6170420;23;20034;-84
2023/11/18 00:51:20;;;;;;;6.85;3.42;;;5.60;99.90;;;;;;6195295;23;20466;-84
2023/11/18 00:53:47;;;;;;;6.50;3.65;;;5.60;99.90;;;;;;6195136;23;20016;-84
2023/11/18 00:56:18;;;;;;;7.13;3.88;;;5.50;99.90;;;;;;6219820;23;20024;-85
2023/11/18 00:58:46;;;;;;;7.32;3.65;;;5.50;99.90;;;;;;6195148;23;20024;-85
2023/11/18 01:01:13;;;;;;;7.35;3.63;;;5.40;99.90;;;;;;6195398;23;20020;-84
2023/11/18 01:03:47;;;;;;;7.78;2.95;;;5.40;99.90;;;;;;6195553;23;20457;-84
2023/11/18 01:06:16;;;;;;;7.53;3.70;;;5.40;99.90;;;;;;6196042;23;20020;-85
2023/11/18 01:08:47;;;;;;;7.85;3.75;;;5.30;99.90;;;;;;6195463;23;20095;-84
2023/11/18 01:11:18;;;;;;;8.88;3.35;;;5.30;99.90;;;;;;6195428;23;20055;-84
2023/11/18 01:13:47;;;;;;;7.47;4.35;;;5.30;99.90;;;;;;6220877;23;20051;-84
2023/11/18 01:16:17;;;;;;;7.97;3.40;;;5.30;99.90;;;;;;6197560;23;20099;-85
2023/11/18 01:18:50;;;;;;;7.10;3.03;;;5.30;99.90;;;;;;6197499;23;20055;-84
2023/11/18 01:21:17;;;;;;;9.13;4.53;;;5.20;99.90;;;;;;6196794;23;20032;-84
2023/11/18 01:23:45;;;;;;;6.43;2.72;;;5.20;99.90;;;;;;6196425;23;20099;-83
2023/11/18 01:26:15;;;;;;;6.25;3.17;;;5.10;99.90;;;;;;6196979;23;20020;-84
2023/11/18 01:28:43;;;;;;;7.45;3.50;;;5.10;99.90;;;;;;6196995;23;20020;-84
2023/11/18 01:31:11;;;;;;;6.68;3.28;;;5.00;99.90;;;;;;6221966;23;20442;-85
2023/11/18 01:33:45;;;;;;;;;;;5.00;99.90;;;;;;6222289;23;20066;-85
2023/11/18 01:36:12;;;;;;;7.75;3.72;;;4.90;99.90;;;;;;6221573;23;20019;-85
2023/11/18 01:38:42;;;;;;;6.90;3.40;;;4.90;99.90;;;;;;6198104;23;20028;-84
2023/11/18 01:41:09;;;;;;;7.05;3.67;;;4.90;99.90;;;;;;6199271;23;20051;-84
2023/11/18 01:43:36;;;;;;;8.10;3.78;;;5.00;99.90;;;;;;6223041;23;20020;-85
2023/11/18 01:46:10;;;;;;;6.85;3.35;;;5.00;99.90;;;;;;6172458;23;20342;-86
2023/11/18 01:48:39;;;;;;;6.97;3.08;;;5.10;99.90;;;;;;6221415;23;20016;-84
2023/11/18 01:51:10;;;;;;;6.78;3.40;;;5.10;99.90;;;;;;6221531;23;20020;-85
2023/11/18 01:53:41;;;;;;;7.30;3.70;;;5.20;99.90;;;;;;6172173;23;20363;-85
2023/11/18 01:56:12;;;;;;;7.38;2.95;;;5.20;99.90;;;;;;6196055;23;20030;-85
2023/11/18 01:58:40;;;;;;;6.97;3.45;;;5.20;99.90;;;;;;6221569;23;20019;-85
2023/11/18 02:01:09;;;;;;;8.43;4.43;;;5.30;99.90;;;;;;6196622;23;20023;-85
2023/11/18 02:03:38;;;;;;;7.35;3.03;;;5.30;99.90;;;;;;6172157;23;20493;-85
2023/11/18 02:06:06;;;;;;;7.50;3.30;;;5.30;99.90;;;;;;6221172;23;20039;-85
2023/11/18 02:08:37;;;;;;;7.28;3.55;;;5.40;99.90;;;;;;6221148;23;20026;-85
2023/11/18 02:11:31;;;;;;;9.93;4.30;;;5.40;99.90;;;;;;6172807;23;20020;-84
2023/11/18 02:14:04;;;;;;;5.68;3.25;;;5.50;99.90;;;;;;6221668;23;20440;-85
2023/11/18 02:16:32;;;;;;;7.18;3.40;;;5.50;99.90;;;;;;6220984;23;20024;-84
2023/11/18 02:19:01;;;;;;;7.53;3.58;;;5.50;99.90;;;;;;6220997;23;20024;-85
2023/11/18 02:21:33;;;;;;;7.18;3.47;;;5.50;99.90;;;;;;6196263;23;20024;-85
2023/11/18 02:24:01;;;;;;;7.50;3.00;;;5.60;99.90;;;;;;6221157;23;20020;-84
2023/11/18 02:26:28;;;;;;;8.02;3.17;;;5.60;99.90;;;;;;6196624;23;20028;-84
2023/11/18 02:28:55;;;;;;;7.30;3.58;;;5.60;99.90;;;;;;6196469;23;20016;-85
2023/11/18 02:31:37;;;;;;;7.88;3.92;;;5.70;99.90;;;;;;6221231;23;20024;-85
2023/11/18 02:34:20;;;;;;;7.80;3.67;;;5.70;99.90;;;;;;6196373;23;20035;-85
2023/11/18 02:36:52;;;;;;;9.77;4.13;;;5.70;99.90;;;;;;6196308;23;20024;-85
2023/11/18 02:39:34;;;;;;;9.43;4.13;;;5.70;99.90;;;;;;6196466;23;20110;-85
2023/11/18 02:42:03;;;;;;;8.70;3.65;;;5.80;99.90;;;;;;6196083;23;20032;-85
2023/11/18 02:44:35;;;;;;;7.50;3.20;;;5.80;99.90;;;;;;6195806;23;20043;-85
2023/11/18 02:47:05;;;;;;;9.80;3.88;;;5.80;99.90;;;;;;6220914;23;20023;-85
2023/11/18 02:49:35;;;;;;;7.70;4.20;;;5.80;99.90;;;;;;6220595;23;20047;-85
2023/11/18 02:52:02;;;;;;;9.35;3.70;;;5.90;99.90;;;;;;6220570;23;20027;-85
2023/11/18 02:54:29;;;;;;;9.75;4.57;;;5.90;99.90;;;;;;6220529;23;20051;-85
2023/11/18 02:56:58;;;;;;;10.25;4.13;;;5.90;99.90;;;;;;6196235;23;20050;-84
2023/11/18 02:59:30;;;;;;;8.25;4.22;;;5.90;99.90;;;;;;6221212;23;20442;-85
2023/11/18 03:01:57;;;;;;;10.68;4.75;;;5.90;99.90;;;;;;6221136;23;20342;-85
2023/11/18 03:04:30;;;;;;;10.73;4.85;;;5.90;99.90;;;;;;6195987;23;20352;-85
2023/11/18 03:06:57;;;;;;;9.60;5.15;;;5.90;99.90;;;;;;6221033;23;20519;-85
2023/11/18 03:09:27;;;;;;;9.52;4.55;;;5.90;99.90;;;;;;6195999;23;20020;-84
2023/11/18 03:11:55;;;;;;;10.10;4.00;;;5.90;99.90;;;;;;6220537;23;20463;-84
2023/11/18 03:14:23;;;;;;;10.10;4.93;;;5.90;99.90;;;;;;6196153;23;20020;-84
2023/11/18 03:16:50;;;;;;;9.30;5.22;;;5.90;99.90;;;;;;6220985;23;20030;-85
2023/11/18 03:19:19;;;;;;;9.88;4.22;;;6.00;99.90;;;;;;6195713;23;20032;-85
2023/11/18 03:21:53;;;;;;;8.55;4.10;;;6.00;99.90;;;;;;6196333;23;20102;-85
2023/11/18 03:24:20;;;;;;;7.90;3.65;;;6.00;99.90;;;;;;6220400;23;20020;-84
2023/11/18 03:26:49;;;;;;;10.35;4.95;;;6.00;99.90;;;;;;6220422;23;20389;-85
2023/11/18 03:29:22;;;;;;;8.93;4.10;;;6.00;99.90;;;;;;6195875;23;20020;-85
2023/11/18 03:31:50;;;;;;;11.93;5.50;;;6.00;99.90;;;;;;6196034;23;20073;-85
2023/11/18 03:34:19;;;;;;;10.68;5.28;;;6.00;99.90;;;;;;6195388;23;20032;-85
2023/11/18 03:36:51;;;;;;;10.05;4.63;;;6.00;99.90;;;;;;6219968;23;20019;-85
2023/11/18 03:39:21;;;;;;;9.60;4.43;;;6.00;99.90;;;;;;6171284;23;20028;-85
2023/11/18 03:41:50;;;;;;;9.65;4.30;;;6.10;99.90;;;;;;6195807;23;20024;-85
2023/11/18 03:44:18;;;;;;;11.35;5.45;;;6.10;99.90;;;;;;6195676;23;20027;-85
2023/11/18 03:46:46;;;;;;;12.65;5.65;;;6.10;99.90;;;;;;6246076;23;20103;-85
2023/11/18 03:49:13;;;;;;;12.93;6.43;;;6.10;99.90;;;;;;6170972;23;20098;-85
2023/11/18 03:51:41;;;;;;;10.18;4.45;;;6.00;99.90;;;;;;6220360;23;20046;-85
2023/11/18 03:54:09;;;;;;;13.75;5.95;;;6.10;99.90;;;;;;6195916;23;20031;-85
2023/11/18 03:56:36;;;;;;;8.25;3.97;;;6.10;99.90;;;;;;6220370;23;20078;-85
2023/11/18 03:59:06;;;;;;;10.35;4.55;;;6.10;99.90;;;;;;6196098;23;20434;-85
2023/11/18 04:01:34;;;;;;;12.05;4.85;;;6.10;99.90;;;;;;6220472;23;20461;-85
2023/11/18 04:04:01;;;;;;;11.45;5.20;;;6.10;99.90;;;;;;6194726;23;20016;-85
2023/11/18 04:06:31;;;;;;;10.88;4.60;;;6.10;99.90;;;;;;6195207;23;20020;-85
2023/11/18 04:08:59;;;;;;;13.93;5.35;;;6.20;99.90;;;;;;6195316;23;20082;-84
2023/11/18 04:11:26;;;;;;;10.32;4.70;;;6.10;99.90;;;;;;6171058;23;20016;-85
2023/11/18 04:13:54;;;;;;;9.70;5.28;;;6.20;99.90;;;;;;6195393;23;20028;-85
2023/11/18 04:16:21;;;;;;;10.93;4.05;;;6.20;99.90;;;;;;6195666;23;20020;-85
2023/11/18 04:18:48;;;;;;;13.25;5.88;;;6.20;99.90;;;;;;6198849;23;20411;-85
2023/11/18 04:21:16;;;;;;;10.32;5.45;;;6.20;99.90;;;;;;6261166;23;20020;-84
2023/11/18 04:23:46;;;;;;;12.80;4.32;;;6.20;99.90;;;;;;6211291;23;20000;-85
2023/11/18 04:26:14;;;;;;;11.93;4.85;;;6.20;99.90;;;;;;6207465;23;20107;-85
2023/11/18 04:28:41;;;;;;;11.32;5.45;;;6.20;99.90;;;;;;6197747;23;20024;-85
2023/11/18 04:31:12;;;;;;;10.75;5.10;;;6.20;99.90;;;;;;6197191;23;20016;-85
2023/11/18 04:33:40;;;;;;;12.38;6.03;;;6.20;99.90;;;;;;6190580;23;20108;-84
2023/11/18 04:36:10;;;;;;;15.30;5.70;;;6.20;99.90;;;;;;6190821;23;20099;-85
2023/11/18 04:38:37;;;;;;;12.35;5.95;;;6.20;99.90;;;;;;6215580;23;20024;-84
2023/11/18 04:41:06;;;;;;;13.85;6.00;;;6.20;99.90;;;;;;6190652;23;20047;-86
2023/11/18 04:43:34;;;;;;;10.75;4.88;;;6.20;99.90;;;;;;6214934;23;20292;-85
2023/11/18 04:46:11;;;;;;;11.63;5.45;;;6.20;99.90;;;;;;6214886;23;20027;-85
2023/11/18 04:48:40;;;;;;;13.82;6.45;;;6.20;99.90;;;;;;6192445;23;20021;-85
2023/11/18 04:51:09;;;;;;;12.05;5.80;;;6.20;99.90;;;;;;6192680;23;20111;-88
2023/11/18 04:53:36;;;;;;;11.85;6.28;;;6.20;99.90;;;;;;6192402;23;20024;-88
2023/11/18 04:56:04;;;;;;;10.68;5.13;;;6.20;99.90;;;;;;6192632;23;20035;-88
2023/11/18 04:58:31;;;;;;;12.68;5.63;;;6.20;99.90;;;;;;6192824;23;20070;-88
2023/11/18 05:00:58;;;;;;;15.07;7.28;;;6.20;99.90;;;;;;6193000;23;20382;-88
2023/11/18 05:03:26;;;;;;;12.55;5.95;;;6.20;99.90;;;;;;6217120;23;20502;-88
2023/11/18 05:05:53;;;;;;;13.30;6.82;;;6.30;99.90;;;;;;6241909;23;20012;-88
2023/11/18 05:08:25;;;;;;;12.15;4.82;;;6.20;99.90;;;;;;6217321;23;20016;-88
2023/11/18 05:10:52;;;;;;;12.80;5.43;;;6.30;99.90;;;;;;6217505;23;20027;-89
2023/11/18 05:13:20;;;;;;;12.18;5.38;;;6.30;99.90;;;;;;6217115;23;20024;-88
2023/11/18 05:15:47;;;;;;;10.20;5.28;;;6.30;99.90;;;;;;6217010;23;20035;-89
2023/11/18 05:18:15;;;;;;;15.10;6.90;;;6.30;99.90;;;;;;6216890;23;20024;-88
2023/11/18 05:20:44;;;;;;;9.90;4.60;;;6.30;99.90;;;;;;6216977;23;20020;-88
2023/11/18 05:23:11;;;;;;;10.48;4.85;;;6.30;99.90;;;;;;6217013;23;20021;-88
2023/11/18 05:25:43;;;;;;;9.40;4.45;;;6.30;99.90;;;;;;6217618;23;20020;-89
2023/11/18 05:28:11;;;;;;;10.95;5.97;;;6.30;99.90;;;;;;6167444;23;20070;-89
2023/11/18 05:30:41;;;;;;;13.57;5.88;;;6.30;99.90;;;;;;6167317;23;20023;-88
2023/11/18 05:33:10;;;;;;;12.98;6.18;;;6.30;99.90;;;;;;6194157;23;20447;-88
2023/11/18 05:35:37;;;;;;;12.48;7.07;;;6.30;99.90;;;;;;6196878;23;20039;-89
2023/11/18 05:38:05;;;;;;;11.93;6.43;;;6.40;99.90;;;;;;6196719;23;20099;-89
2023/11/18 05:40:39;;;;;;;12.20;6.65;;;6.30;99.90;;;;;;6221451;23;20063;-87
2023/11/18 05:43:15;;;;;;;11.60;6.75;;;6.40;99.90;;;;;;6221595;23;20016;-88
2023/11/18 05:46:14;;;;;;;11.30;5.78;;;6.40;99.90;;;;;;6196999;23;20101;-89
2023/11/18 05:48:32;;;;;;;14.73;7.07;;;6.30;99.90;;;;;;6221496;23;20016;-89
2023/11/18 05:50:59;;;;;;;13.65;5.97;;;6.40;99.90;;;;;;6197653;23;20019;-88
2023/11/18 05:53:26;;;;;;;14.65;7.95;;;6.40;99.90;;;;;;6197134;23;20074;-89
2023/11/18 05:56:00;;;;;;;14.30;6.95;;;6.40;99.90;;;;;;6198563;23;20024;-88
2023/11/18 05:58:28;;;;;;;12.35;5.78;;;6.30;99.90;;;;;;6221708;23;20072;-89
2023/11/18 06:00:55;;;;;;;12.48;6.82;;;6.40;99.90;;;;;;6197085;23;20075;-88
2023/11/18 06:03:22;;;;;;;13.68;7.03;;;6.30;99.90;;;;;;6196501;23;20024;-89
2023/11/18 06:05:51;;;;;;;12.13;6.57;;;6.30;99.90;;;;;;6197093;23;20042;-88
2023/11/18 06:08:22;;;;;;;12.70;6.43;;;6.30;99.90;;;;;;6196310;23;20028;-89
2023/11/18 06:10:51;;;;;;;13.23;7.40;;;6.30;99.90;;;;;;6221520;23;20020;-89
2023/11/18 06:13:22;;;;;;;15.93;8.50;;;6.30;99.90;;;;;;6196774;23;20070;-89
2023/11/18 06:15:51;;;;;;;14.82;7.43;;;6.30;99.90;;;;;;6221218;23;20027;-89
2023/11/18 06:18:21;;;;;;;14.52;6.85;;;6.30;99.90;;;;;;6221515;23;20631;-88
2023/11/18 06:20:51;;;;;;;13.02;6.70;;;6.30;99.90;;;;;;6196460;23;20031;-88
2023/11/18 06:23:19;;;;;;;13.23;6.90;;;6.30;99.90;;;;;;6196159;23;20020;-89
2023/11/18 06:25:46;;;;;;;13.48;7.35;;;6.30;99.90;;;;;;6196326;23;20332;-89
2023/11/18 06:28:15;;;;;;;13.43;7.90;;;6.30;99.90;;;;;;6172563;23;20016;-89
2023/11/18 06:30:42;;;;;;;12.55;6.70;;;6.30;99.90;;;;;;6172777;23;20016;-88
2023/11/18 06:33:09;;;;;;;12.75;7.22;;;6.30;99.90;;;;;;6171837;23;20027;-89
2023/11/18 06:35:37;;;;;;;14.43;6.78;;;6.30;99.90;;;;;;6196714;23;20074;-89
2023/11/18 06:38:04;;;;;;;13.88;6.82;;;6.30;99.90;;;;;;6221064;23;20024;-89
2023/11/18 06:40:32;;;;;;;15.02;8.40;;;6.30;99.90;;;;;;6171782;23;20458;-89
2023/11/18 06:43:02;;;;;;;12.90;6.55;;;6.20;99.90;;;;;;6196761;23;20028;-88
2023/11/18 06:45:31;;;;;;;13.07;7.25;;;6.20;99.90;;;;;;6221586;23;20016;-88
2023/11/18 06:47:59;;;;;;;15.57;7.18;;;6.20;99.90;;;;;;6196632;23;20437;-90
2023/11/18 06:50:26;;;;;;;15.30;7.75;;;6.20;99.90;;;;;;6221528;23;20107;-89
2023/11/18 06:52:54;;;;;;;13.70;7.63;;;6.20;99.90;;;;;;6221417;23;20086;-91
2023/11/18 06:55:21;;;;;;;14.40;7.07;;;6.20;99.90;;;;;;6196661;23;20066;-90
2023/11/18 06:57:53;;;;;;;13.60;7.32;;;6.20;99.90;;;;;;6196645;23;20107;-88
2023/11/18 07:00:21;;;;;;;14.07;6.80;;;6.20;99.90;;;;;;6221215;23;20028;-89
2023/11/18 07:02:49;;;;;;;15.25;8.25;;;6.20;99.90;;;;;;6196602;23;20028;-89
2023/11/18 07:05:17;;;;;;;13.93;7.70;;;6.20;99.90;;;;;;6196234;23;20012;-88
2023/11/18 07:07:46;;;;;;;14.25;8.15;;;6.20;99.90;;;;;;6172095;23;20023;-88
2023/11/18 07:10:13;;;;;;;13.25;6.82;;;6.20;99.90;;;;;;6220831;23;20077;-88
2023/11/18 07:12:41;;;;;;;13.20;6.63;;;6.20;99.90;;;;;;6196041;23;20020;-88
2023/11/18 07:15:10;;;;;;;13.18;6.78;;;6.20;99.90;;;;;;6171170;23;20059;-88
2023/11/18 07:17:37;;;;;;;11.18;6.68;;;6.20;99.90;;;;;;6195734;23;20035;-89
2023/11/18 07:20:05;;;;;;;10.70;5.43;;;6.20;99.90;;;;;;6221085;23;20031;-88
2023/11/18 07:22:34;;;;;;;12.23;6.28;;;6.20;99.90;;;;;;6221031;23;20046;-89
2023/11/18 07:25:06;;;;;;;9.00;4.97;;;6.20;99.90;;;;;;6195949;23;20095;-89
2023/11/18 07:27:38;;;;;;;10.73;5.53;;;6.20;99.90;;;;;;6220612;23;20016;-88
2023/11/18 07:30:10;;;;;;;9.55;5.38;;;6.30;99.90;;;;;;6195676;23;20382;-88
2023/11/18 07:32:38;;;;;;;10.98;5.43;;;6.30;99.90;;;;;;6221028;23;20012;-89
2023/11/18 07:35:09;;;;;;;9.52;5.18;;;6.30;99.90;;;;;;6190402;23;20074;-89
2023/11/18 07:37:37;;;;;;;11.00;5.90;;;6.30;99.90;;;;;;6190509;23;20020;-89
2023/11/18 07:40:05;;;;;;;9.55;5.18;;;6.30;99.90;;;;;;6166118;23;20020;-88
2023/11/18 07:42:35;;;;;;;9.13;4.43;;;6.30;99.90;;;;;;6190518;23;20051;-88
2023/11/18 07:45:17;;;;;;;9.75;5.28;;;6.30;99.90;;;;;;6214993;23;20023;-88
2023/11/18 07:47:46;;;;;;;8.82;4.53;;;6.30;99.90;;;;;;6190626;23;20047;-88
2023/11/18 07:50:16;;;;;;;8.82;4.55;;;6.30;99.90;;;;;;6191039;23;20025;-88
2023/11/18 07:52:44;;;;;;;8.60;4.65;;;6.30;99.90;;;;;;6190509;23;20027;-89
2023/11/18 07:55:12;;;;;;;8.70;4.72;;;6.30;99.90;;;;;;6190187;23;20047;-88
2023/11/18 07:57:40;;;;;;;8.38;4.53;;;6.30;99.90;;;;;;6215206;23;20028;-88
2023/11/18 08:00:11;;;;;;;7.75;4.13;;;6.30;99.90;;;;;;6190905;23;20107;-88
2023/11/18 08:02:41;;;;;;;9.35;5.30;;;6.40;99.90;;;;;;6191123;23;20343;-88
2023/11/18 08:05:13;;;;;;;8.10;3.97;;;6.40;99.90;;;;;;6215271;23;20505;-89
2023/11/18 08:07:44;;;;;;;9.27;4.23;;;6.40;99.90;;;;;;6215464;23;20024;-88
2023/11/18 08:10:13;;;;;;;8.88;4.32;;;6.40;99.90;;;;;;6215151;23;20023;-88
2023/11/18 08:12:40;;;;;;;10.05;4.50;;;6.40;99.90;;;;;;6191600;23;20020;-88
2023/11/18 08:15:09;;;;;;;7.78;4.72;;;6.40;99.90;;;;;;6190598;23;20016;-89
2023/11/18 08:17:36;;;;;;;8.13;4.93;;;6.40;99.90;;;;;;6191167;23;20044;-89
2023/11/18 08:20:13;;;;;;;9.85;5.05;;;6.40;99.90;;;;;;6229084;23;20124;-88
2023/11/18 08:22:44;;;;;;;10.95;5.30;;;6.40;99.90;;;;;;6213303;23;20051;-88
2023/11/18 08:25:14;;;;;;;8.90;4.63;;;6.40;99.90;;;;;;6213519;23;20020;-88
2023/11/18 08:27:42;;;;;;;10.05;4.70;;;6.40;99.90;;;;;;6222708;23;20021;-88
2023/11/18 08:30:12;;;;;;;8.05;3.97;;;6.40;99.90;;;;;;6192679;23;20469;-88
2023/11/18 08:32:43;;;;;;;10.88;5.38;;;6.40;99.90;;;;;;6216671;23;20059;-88
2023/11/18 08:35:14;;;;;;;9.43;4.30;;;6.50;99.90;;;;;;6216521;23;20029;-88
2023/11/18 08:37:52;;;;;;;11.93;5.75;;;6.50;99.90;;;;;;6190230;23;20043;-89
2023/11/18 08:40:22;;;;;;;8.65;4.45;;;6.50;99.90;;;;;;6192326;23;20032;-89
2023/11/18 08:42:51;;;;;;;10.85;5.45;;;6.50;99.90;;;;;;6215323;23;20439;-88
2023/11/18 08:45:29;;;;;;;8.77;4.22;;;6.50;99.90;;;;;;6215817;23;20017;-88
2023/11/18 08:48:10;;;;;;;9.40;4.40;;;6.60;99.90;;;;;;6216133;23;20096;-88
2023/11/18 08:50:41;;;;;;;9.02;3.75;;;6.60;99.90;;;;;;6190111;23;20434;-88
2023/11/18 08:53:09;;;;;;;8.55;4.15;;;6.60;99.90;;;;;;6215189;23;20443;-88
2023/11/18 08:56:13;;;;;;;9.95;5.20;;;6.70;99.90;;;;;;6214987;23;20031;-88
2023/11/18 08:58:34;;;;;;;8.48;4.07;;;6.70;99.90;;;;;;6211137;23;20086;-88
2023/11/18 09:01:14;;;;;;;8.85;4.05;;;6.70;99.90;;;;;;6167448;23;20020;-88
2023/11/18 09:03:51;;;;;;;11.95;5.70;;;6.80;99.90;;;;;;6193322;23;20056;-89
2023/11/18 09:06:29;;;;;;;11.55;5.35;;;6.80;99.90;;;;;;6217209;23;20063;-89
2023/11/18 09:08:57;;;;;;;13.23;5.65;;;6.90;99.90;;;;;;6190022;23;20021;-89
2023/11/18 09:11:32;;;;;;;9.32;4.97;;;6.90;99.90;;;;;;6215120;23;20560;-89
2023/11/18 09:14:00;;;;;;;8.90;4.65;;;6.90;99.90;;;;;;6214916;23;20465;-89
2023/11/18 09:16:33;;;;;;;10.55;3.97;;;7.00;99.90;;;;;;6166356;23;20048;-89
2023/11/18 09:19:02;;;;;;;9.48;3.80;;;7.00;99.90;;;;;;6190107;23;20021;-90
2023/11/18 09:21:34;;;;;;;8.60;3.55;;;7.00;99.90;;;;;;6215075;23;20020;-90
2023/11/18 09:24:07;;;;;;;8.98;4.38;;;7.00;99.90;;;;;;6217824;23;20017;-89
2023/11/18 09:26:35;;;;;;;11.52;4.97;;;7.10;99.90;;;;;;6168258;23;20067;-89
2023/11/18 09:29:02;;;;;;;9.32;4.38;;;7.10;99.90;;;;;;6217226;23;20040;-89
2023/11/18 09:31:33;;;;;;;9.93;4.28;;;7.10;99.90;;;;;;6192162;23;20021;-86
2023/11/18 09:34:15;;;;;;;7.63;4.03;;;7.20;99.90;;;;;;6169760;23;20020;-87
2023/11/18 09:36:53;;;;;;;8.77;3.80;;;7.20;99.90;;;;;;6193880;23;20107;-88
2023/11/18 09:39:29;;;;;;;8.38;4.10;;;7.20;99.90;;;;;;6192686;23;20021;-87
2023/11/18 09:41:57;;;;;;;9.30;3.58;;;7.30;99.90;;;;;;6193511;23;20025;-88
2023/11/18 09:44:44;;;;;;;7.10;2.92;;;7.30;99.90;;;;;;6172792;23;20013;-88
2023/11/18 09:51:38;;;;;;;9.23;3.10;;;7.40;99.90;;;;;;6218354;23;20040;-88
2023/11/18 09:54:18;;;;;;;;;;;7.40;99.90;;;;;;6169339;23;20066;-87
2023/11/18 09:56:56;;;;;;;7.45;3.80;;;7.40;99.90;;;;;;6240826;23;19916;-86
2023/11/18 09:59:36;;;;;;;8.32;3.72;;;7.40;99.90;;;;;;6241710;23;20026;-86
2023/11/18 10:02:10;;;;;;;10.98;4.68;;;7.40;99.90;;;;;;6192419;23;20027;-88
2023/11/18 10:04:42;;;;;;;10.35;4.03;;;7.40;99.90;;;;;;6193128;23;20099;-90
2023/11/18 10:07:16;;;;;;;8.88;4.50;;;7.40;99.90;;;;;;6192241;23;20021;-88
2023/11/18 10:09:48;;;;;;;9.30;4.28;;;7.40;99.90;;;;;;6217557;23;20067;-87
2023/11/18 10:12:23;;;;;;;9.15;4.18;;;7.40;99.90;;;;;;6216568;23;20028;-86
2023/11/18 10:15:11;;;;;;;9.73;4.18;;;7.40;99.90;;;;;;6216483;23;20435;-86
2023/11/18 10:20:47;;;;;;;10.93;3.33;;;7.40;99.90;;;;;;6215446;23;20024;-89
2023/11/18 10:23:19;;;;;;;7.88;3.30;;;7.40;99.90;;;;;;6214520;23;20035;-92
2023/11/18 10:25:56;;;;;;;10.65;4.72;;;7.40;99.90;;;;;;6214568;23;20017;-89
2023/11/18 10:28:34;;;;;;;7.28;3.53;;;7.40;99.90;;;;;;6213624;23;20046;-87
2023/11/18 10:31:04;;;;;;;9.45;3.90;;;7.40;99.90;;;;;;6213949;23;20021;-90
2023/11/18 10:33:54;;;;;;;;;;;;;;;;;;;;;
2023/11/18 10:37:14;;;;;;;7.20;3.40;;;7.40;99.90;;;;;;6246771;23;20012;-89
2023/11/18 10:39:51;;;;;;;9.03;3.37;;;7.40;99.90;;;;;;6219324;23;20024;-89
2023/11/18 10:42:20;;;;;;;7.10;3.40;;;7.40;99.90;;;;;;6193709;23;20271;-89
2023/11/18 10:44:58;;;;;;;8.05;3.40;;;7.40;99.90;;;;;;6218514;23;20657;-90
2023/11/18 10:47:28;;;;;;;7.55;2.90;;;7.40;99.90;;;;;;6219383;23;20020;-86
2023/11/18 10:49:56;;;;;;;6.10;2.80;;;7.40;99.90;;;;;;6219392;23;20023;-88
2023/11/18 10:52:37;;;;;;;6.05;2.67;;;7.40;99.90;;;;;;6169499;23;20020;-96
2023/11/18 10:55:33;;;;;;;9.20;3.03;;;7.40;99.90;;;;;;6219567;23;20031;-95
2023/11/18 10:58:46;;;;;;;7.40;2.78;;;7.30;99.90;;;;;;6196145;23;20028;-91
2023/11/18 11:01:33;;;;;;;7.00;2.63;;;7.40;99.90;;;;;;6241442;23;20055;-89
2023/11/18 11:04:04;;;;;;;7.20;2.95;;;7.40;99.90;;;;;;6193432;23;20024;-88
2023/11/18 11:06:53;;;;;;;7.72;2.55;;;7.30;99.90;;;;;;6196481;23;20020;-90
2023/11/18 11:09:27;;;;;;;7.63;3.80;;;7.40;99.90;;;;;;6194332;23;20020;-88
2023/11/18 11:12:03;;;;;;;;;;;7.40;99.90;;;;;;6192437;23;20039;-88
2023/11/18 11:15:04;;;;;;;9.68;3.75;;;7.40;99.90;;;;;;6218662;23;19915;-87
2023/11/18 11:17:42;;;;;;;6.83;3.43;;;7.40;99.90;;;;;;6193377;23;20027;-89
2023/11/18 11:21:03;;;;;;;9.57;4.13;;;7.30;99.90;;;;;;6192592;23;20466;-92
2023/11/18 11:23:43;;;;;;;7.85;3.45;;;7.30;99.90;;;;;;6195481;23;20027;-90
2023/11/18 11:26:30;;;;;;;7.03;3.25;;;7.30;99.90;;;;;;6195211;23;20069;-90
2023/11/18 11:29:22;;;;;;;7.60;3.17;;;7.40;99.90;;;;;;6218470;23;20020;-90
2023/11/18 11:32:24;;;;;;;6.95;4.20;;;7.40;99.90;;;;;;6242788;23;20059;-91
2023/11/18 11:34:56;;;;;;;5.03;2.47;;;7.40;99.90;;;;;;6214280;23;20021;-92
2023/11/18 11:40:46;;;;;;;7.22;2.95;;;7.40;99.90;;;;;;6214000;23;20491;-90
2023/11/18 11:43:21;;;;;;;6.75;2.72;;;7.40;99.90;;;;;;6213645;23;20032;-88
2023/11/18 11:45:54;;;;;;;6.00;2.42;;;7.40;99.90;;;;;;6188478;23;20454;-87
2023/11/18 11:48:27;;;;;;;7.25;2.97;;;7.40;99.90;;;;;;6187486;23;20343;-81
2023/11/18 11:50:55;;;;;;;8.50;3.75;;;7.40;99.90;;;;;;6211109;23;20087;-85
2023/11/18 11:53:31;;;;;;;7.90;2.97;;;7.40;99.90;;;;;;6237283;23;20016;-85
2023/11/18 11:56:05;;;;;;;7.63;2.83;;;7.40;99.90;;;;;;6211874;23;20031;-83
2023/11/18 11:58:36;;;;;;;6.72;2.38;;;7.40;99.90;;;;;;6211179;23;20028;-79
2023/11/18 12:01:17;;;;;;;5.55;2.75;;;7.40;99.90;;;;;;6184995;23;20024;-79
2023/11/18 12:03:47;;;;;;;7.13;2.85;;;7.50;99.90;;;;;;6236433;23;20039;-81
2023/11/18 12:06:21;;;;;;;5.82;2.97;;;7.50;99.90;;;;;;6211546;23;20048;-79
2023/11/18 12:08:51;;;;;;;5.80;3.03;;;7.50;99.90;;;;;;6212818;23;20090;-81
2023/11/18 12:11:22;;;;;;;5.38;2.53;;;7.50;99.90;;;;;;6185685;23;20051;-82
2023/11/18 12:14:12;;;;;;;6.93;3.33;;;7.50;99.90;;;;;;6211818;23;20020;-82
2023/11/18 12:17:01;;;;;;;6.57;3.05;;;7.60;99.90;;;;;;6194322;23;20051;-82
2023/11/18 12:19:47;;;;;;;6.25;3.20;;;7.60;99.90;;;;;;6202682;23;20021;-82
2023/11/18 12:22:24;;;;;;;7.25;2.75;;;7.60;99.90;;;;;;6185413;23;20048;-84
2023/11/18 12:24:58;;;;;;;4.30;1.92;;;7.60;99.90;;;;;;6185689;23;20409;-83
2023/11/18 12:28:03;;;;;;;6.80;2.95;;;7.60;99.90;;;;;;6209327;23;20017;-82
2023/11/18 12:30:35;;;;;;;6.25;3.20;;;7.60;99.90;;;;;;6208791;23;20051;-83
2023/11/18 12:33:08;;;;;;;7.82;2.22;;;7.60;99.90;;;;;;6207171;23;20096;-80
2023/11/18 12:35:51;;;;;;;5.88;2.10;;;7.60;99.90;;;;;;6159469;23;20060;-85
2023/11/18 12:38:49;;;;;;;4.57;2.10;;;7.70;99.90;;;;;;6234273;23;20048;-80
2023/11/18 12:41:39;;;;;;;6.47;2.40;;;7.70;99.90;;;;;;6184152;23;20048;-81
2023/11/18 12:44:35;;;;;;;2.92;1.73;;;7.70;99.90;;;;;;6161252;23;20083;-80
2023/11/18 12:47:20;;;;;;;6.22;2.67;;;7.70;99.90;;;;;;6209245;23;20023;-80
2023/11/18 12:49:54;;;;;;;5.85;2.05;;;7.80;99.90;;;;;;6210878;23;20090;-80
2023/11/18 12:52:23;;;;;;;5.18;1.80;;;7.80;99.90;;;;;;6208459;23;20027;-79
2023/11/18 12:54:52;;;;;;;3.92;2.03;;;7.80;99.90;;;;;;6209924;23;20036;-79
2023/11/18 12:57:26;;;;;;;5.97;3.40;;;7.80;99.90;;;;;;6185370;23;20841;-80
2023/11/18 12:59:54;;;;;;;4.93;2.22;;;7.80;99.90;;;;;;6185805;23;20017;-80
2023/11/18 13:02:22;;;;;;;6.18;3.08;;;7.80;99.90;;;;;;6183484;23;20031;-80
2023/11/18 13:04:53;;;;;;;6.10;2.70;;;7.80;99.90;;;;;;6161539;23;20358;-80
2023/11/18 13:07:21;;;;;;;5.13;2.40;;;7.90;99.90;;;;;;6211158;23;20021;-79
2023/11/18 13:09:49;;;;;;;4.35;2.13;;;7.90;99.90;;;;;;6188001;23;20026;-79
2023/11/18 13:12:19;;;;;;;4.75;2.33;;;7.90;99.90;;;;;;6186424;23;20028;-79
2023/11/18 13:14:47;;;;;;;5.72;2.15;;;8.00;99.90;;;;;;6189002;23;20347;-80
2023/11/18 13:17:17;;;;;;;7.68;2.88;;;7.90;99.90;;;;;;6164555;23;20357;-80
2023/11/18 13:19:47;;;;;;;5.25;2.58;;;8.00;99.90;;;;;;6212687;23;20028;-80
2023/11/18 13:22:18;;;;;;;4.55;1.98;;;8.00;99.90;;;;;;6211480;23;20025;-80
2023/11/18 13:24:49;;;;;;;4.53;2.22;;;7.90;99.90;;;;;;6212825;23;20031;-80
2023/11/18 13:27:19;;;;;;;4.20;2.10;;;7.90;99.90;;;;;;6212495;23;20039;-80
2023/11/18 13:29:50;;;;;;;5.03;2.10;;;7.90;99.90;;;;;;6187961;23;20021;-80
2023/11/18 13:32:22;;;;;;;5.00;1.73;;;7.90;99.90;;;;;;6186111;23;20028;-80